page 5712 of 1003935 registered users

eBook PostsUsers

  1. 0event21cattle registered @ 2013-01-31 02:30:35, last login @ 2013-01-31 02:30:35
  2. 0lisa3ox registered @ 2013-01-31 02:30:40, last login @ 2013-01-31 02:30:40
  3. 0quilt4dead registered @ 2013-01-31 02:30:45, last login @ 2013-01-31 02:30:45
  4. 0grain9mosque registered @ 2013-01-31 02:32:14, last login @ 2013-01-31 02:32:14
  5. 0flocksarah01 registered @ 2013-01-31 02:32:54, last login @ 2013-01-31 02:32:54
  6. 0voyagesled85 registered @ 2013-01-31 02:34:02, last login @ 2013-01-31 02:34:02
  7. 0gluefood72 registered @ 2013-01-31 02:34:45, last login @ 2013-01-31 02:34:45
  8. 0neonpond5 registered @ 2013-01-31 02:34:49, last login @ 2013-01-31 02:34:49
  9. 0diving2report registered @ 2013-01-31 02:35:28, last login @ 2013-01-31 02:35:28
  10. 0hammershirt8 registered @ 2013-01-31 02:40:03, last login @ 2013-01-31 02:40:03
  11. 0nettower72 registered @ 2013-01-31 02:40:29, last login @ 2013-01-31 02:40:29
  12. 0woodmotion6 registered @ 2013-01-31 02:42:34, last login @ 2013-01-31 02:42:34
  13. 0brushcross70 registered @ 2013-01-31 02:43:48, last login @ 2013-01-31 02:43:48
  14. 0sugarjumbo0 registered @ 2013-01-31 02:43:58, last login @ 2013-01-31 02:43:58
  15. 0silver4crush registered @ 2013-01-31 02:44:47, last login @ 2013-01-31 02:44:47
  16. 0mayborder0 registered @ 2013-01-31 02:45:21, last login @ 2013-01-31 02:45:21
  17. 0cuban46whip registered @ 2013-01-31 02:45:27, last login @ 2013-01-31 02:45:27
  18. 0shelforder15 registered @ 2013-01-31 02:45:35, last login @ 2013-01-31 02:45:35
  19. 0wound91fan registered @ 2013-01-31 02:46:21, last login @ 2013-01-31 02:46:21
  20. 0bow40radish registered @ 2013-01-31 02:49:27, last login @ 2013-01-31 02:49:27
  21. 0kendocream4 registered @ 2013-01-31 02:49:38, last login @ 2013-01-31 02:49:38
  22. 0snail5neck registered @ 2013-01-31 02:50:17, last login @ 2013-01-31 02:50:17
  23. 0ounce16pigeon registered @ 2013-01-31 02:50:29, last login @ 2013-01-31 02:50:29
  24. 0hail82dish registered @ 2013-01-31 02:51:51, last login @ 2013-01-31 02:51:51
  25. 0donkey9menu registered @ 2013-01-31 02:53:22, last login @ 2013-01-31 02:53:22
  26. 0mark0self registered @ 2013-01-31 02:53:35, last login @ 2013-01-31 02:53:35
  27. 0manxcrush7 registered @ 2013-01-31 02:54:13, last login @ 2013-01-31 02:54:13
  28. 0oval8hand registered @ 2013-01-31 02:54:26, last login @ 2013-01-31 02:54:26
  29. 0twigspace39 registered @ 2013-01-31 02:54:55, last login @ 2013-01-31 02:54:55
  30. 0pantyticket0 registered @ 2013-01-31 02:58:14, last login @ 2013-01-31 02:58:14
  31. 0peru24swing registered @ 2013-01-31 02:58:40, last login @ 2013-01-31 02:58:40
  32. 0earwedge25 registered @ 2013-01-31 02:58:51, last login @ 2013-01-31 02:58:51
  33. 0peentenor6 registered @ 2013-01-31 03:01:14, last login @ 2013-01-31 03:01:14
  34. 0witch68punch registered @ 2013-01-31 03:01:48, last login @ 2013-01-31 03:01:48
  35. 0seethak registered @ 2013-01-31 03:02:01, last login @ 2013-01-31 03:04:30
  36. 0berry0calf registered @ 2013-01-31 03:03:08, last login @ 2013-01-31 03:03:08
  37. 0washer51wolf registered @ 2013-01-31 03:03:11, last login @ 2013-01-31 03:03:11
  38. 0tulipwatch39 registered @ 2013-01-31 03:03:54, last login @ 2013-01-31 03:44:25
  39. 0way67skate registered @ 2013-01-31 03:05:16, last login @ 2013-01-31 03:05:16
  40. 0paul74dew registered @ 2013-01-31 03:06:30, last login @ 2013-01-31 03:49:04
  41. 0pajama2ounce registered @ 2013-01-31 03:08:04, last login @ 2013-01-31 03:08:04
  42. 0felixandrews876 registered @ 2013-01-31 03:08:10, last login @ 2013-01-31 03:08:10
  43. 0paperskin4 registered @ 2013-01-31 03:09:13, last login @ 2013-01-31 03:09:13
  44. 0bellbrush47 registered @ 2013-01-31 03:10:48, last login @ 2013-01-31 03:58:05
  45. 0towerspain3 registered @ 2013-01-31 03:11:09, last login @ 2013-01-31 03:50:26
  46. 0fatlocket8 registered @ 2013-01-31 03:11:58, last login @ 2013-01-31 03:11:58
  47. 0voyage64peak registered @ 2013-01-31 03:12:36, last login @ 2013-01-31 03:12:36
  48. 0camera8arch registered @ 2013-01-31 03:12:53, last login @ 2013-01-31 03:41:16
  49. 0weight4cord registered @ 2013-01-31 03:13:31, last login @ 2013-01-31 03:13:31
  50. 0carrot7stew registered @ 2013-01-31 03:14:26, last login @ 2013-01-31 03:14:26
  51. 0sleepship4 registered @ 2013-01-31 03:14:34, last login @ 2013-01-31 03:14:34
  52. 0ideacan0 registered @ 2013-01-31 03:14:51, last login @ 2013-01-31 03:14:51
  53. 0rabbi2lead registered @ 2013-01-31 03:14:56, last login @ 2013-01-31 03:46:10
  54. 0arrow3yoke registered @ 2013-01-31 03:15:04, last login @ 2013-01-31 03:30:37
  55. 0mosquecd0 registered @ 2013-01-31 03:15:09, last login @ 2013-01-31 03:15:09
  56. 0conga5hope registered @ 2013-01-31 03:15:22, last login @ 2013-01-31 03:15:22
  57. 0lyndsay330 registered @ 2013-01-31 03:17:24, last login @ 2013-01-31 03:17:24
  58. 0juryglider48 registered @ 2013-01-31 03:18:06, last login @ 2013-01-31 03:18:06
  59. 0celloflock89 registered @ 2013-01-31 03:20:03, last login @ 2013-01-31 03:20:03
  60. 0designtalk13 registered @ 2013-01-31 03:20:16, last login @ 2013-01-31 03:20:16
  61. 0ankle58wood registered @ 2013-01-31 03:20:27, last login @ 2013-01-31 03:20:27
  62. 0hairwitch20 registered @ 2013-01-31 03:21:00, last login @ 2013-01-31 03:21:00
  63. 0temper81fibre registered @ 2013-01-31 03:21:42, last login @ 2013-01-31 03:21:42
  64. 0felonysoil9 registered @ 2013-01-31 03:22:31, last login @ 2013-01-31 03:22:31
  65. 0quit1lotion registered @ 2013-01-31 03:22:49, last login @ 2013-01-31 03:22:49
  66. 0pumpdonald54 registered @ 2013-01-31 03:25:05, last login @ 2013-01-31 03:25:05
  67. 0throat3bat registered @ 2013-01-31 03:25:17, last login @ 2013-01-31 03:25:17
  68. 0city4tail registered @ 2013-01-31 03:25:17, last login @ 2013-01-31 03:25:17
  69. 0iran5voice registered @ 2013-01-31 03:28:29, last login @ 2013-01-31 03:28:29
  70. 0llamabeet1 registered @ 2013-01-31 03:30:18, last login @ 2013-01-31 03:30:18
  71. 0Creaxyrep registered @ 2013-01-31 03:31:18, last login @ 2013-01-31 03:31:18
  72. 0frog87mallet registered @ 2013-01-31 03:31:50, last login @ 2013-01-31 03:31:50
  73. 0ticketbell91 registered @ 2013-01-31 03:32:35, last login @ 2013-01-31 03:32:35
  74. 0tinchina5 registered @ 2013-01-31 03:33:02, last login @ 2013-01-31 03:33:02
  75. 0ehsan_sfot registered @ 2013-01-31 03:33:37, last login @ 2013-01-31 03:33:37
  76. 0card5fear registered @ 2013-01-31 03:33:58, last login @ 2013-01-31 03:33:58
  77. 0waycougar87 registered @ 2013-01-31 03:36:49, last login @ 2013-01-31 03:36:49
  78. 0hammer5palm registered @ 2013-01-31 03:37:31, last login @ 2013-01-31 03:37:31
  79. 0powder1hyena registered @ 2013-01-31 03:37:34, last login @ 2013-01-31 03:37:34
  80. 0rose4swim registered @ 2013-01-31 03:38:15, last login @ 2013-01-31 03:38:15
  81. 0guiltyfind3 registered @ 2013-01-31 03:38:20, last login @ 2013-01-31 03:38:20
  82. 0egypt1fold registered @ 2013-01-31 03:38:50, last login @ 2013-01-31 03:38:50
  83. 0gerritcole345 registered @ 2013-01-31 03:39:34, last login @ 2013-01-31 03:39:34
  84. 0death0turnip registered @ 2013-01-31 03:40:01, last login @ 2013-01-31 03:40:01
  85. 0phonerose57 registered @ 2013-01-31 03:40:18, last login @ 2013-01-31 03:40:18
  86. 0spoonmile94 registered @ 2013-01-31 03:40:27, last login @ 2013-01-31 03:40:27
  87. 0legokra57 registered @ 2013-01-31 03:40:39, last login @ 2013-01-31 03:40:39
  88. 0drainnancy9 registered @ 2013-01-31 03:40:55, last login @ 2013-01-31 03:40:55
  89. 0fan1canvas registered @ 2013-01-31 03:42:14, last login @ 2013-01-31 03:42:14
  90. 0tax93page registered @ 2013-01-31 03:42:38, last login @ 2013-01-31 03:42:38
  91. 0karen4epoxy registered @ 2013-01-31 03:43:34, last login @ 2013-01-31 03:43:34
  92. 0lisa5sailor registered @ 2013-01-31 03:43:53, last login @ 2013-01-31 03:43:53
  93. 0raftprison1 registered @ 2013-01-31 03:43:55, last login @ 2013-01-31 03:43:55
  94. 0flame8glue registered @ 2013-01-31 03:44:48, last login @ 2013-01-31 03:44:48
  95. 0beachfitness955 registered @ 2013-01-31 03:44:50, last login @ 2013-01-31 03:44:50
  96. 0georgeconga74 registered @ 2013-01-31 03:45:00, last login @ 2013-01-31 03:45:00
  97. 0virgo69move registered @ 2013-01-31 03:46:06, last login @ 2013-01-31 03:46:06
  98. 0helium5nerve registered @ 2013-01-31 03:46:22, last login @ 2013-01-31 03:46:22
  99. 0ease8input registered @ 2013-01-31 03:46:48, last login @ 2013-01-31 03:46:48
  100. 0ananona registered @ 2013-01-31 03:46:56, last login @ 2013-01-31 03:46:56
  101. 0brace8north registered @ 2013-01-31 03:47:12, last login @ 2013-01-31 03:47:12

More...

[5722] [5721] [5720] [5719] [5718] [5717] [5716] [5715] [5714] [5713] [5712] [5711] [5710] [5709] [5708] [5707] [5706] [5705] [5704] [5703] ...[1]
Back to Top